Time;durP1;ratioP1;P1;durP2;ratioP2;P2;SDS_P1;SDS_P2;PMS_P1;PMS_P2;Temp;Humidity;BMP_temperature;BMP_pressure;BME280_temperature;BME280_humidity;BME280_pressure;Samples;Min_cycle;Max_cycle;Signal;HPM_P1;HPM_P2
2023/04/06 05:52:36;;;;;;;8.00;4.75;;;;;;;;;;10498868;28;20442;-84
2023/04/06 05:57:58;;;;;;;18.05;8.00;;;;;;;;;;10495099;22;20035;-81
2023/04/06 06:03:00;;;;;;;8.88;5.90;;;;;;;;;;10336229;28;20092;-81
2023/04/06 06:08:04;;;;;;;7.63;5.88;;;;;;;;;;10338895;28;20038;-81
2023/04/06 06:13:05;;;;;;;7.30;5.60;;;;;;;;;;10337790;28;20097;-81
2023/04/06 06:18:06;;;;;;;;;;;;;;;;;;10360754;28;20102;-80
2023/04/06 06:23:18;;;;;;;8.73;6.13;;;;;;;;;;10347855;28;19906;-81
2023/04/06 06:28:19;;;;;;;;;;;;;;;;;;10338983;28;20027;-81
2023/04/06 06:33:21;;;;;;;8.57;6.70;;;;;;;;;;10337222;28;20294;-81
2023/04/06 06:38:22;;;;;;;8.30;5.93;;;;;;;;;;10335729;28;20055;-81
2023/04/06 06:43:23;;;;;;;;;;;;;;;;;;10338117;28;20054;-81
2023/04/06 06:48:24;;;;;;;8.23;5.82;;;;;;;;;;10335173;28;19933;-82
2023/04/06 06:53:25;;;;;;;7.65;5.93;;;;;;;;;;10338617;28;20061;-79
2023/04/06 06:58:27;;;;;;;;;;;;;;;;;;10350443;28;20026;-80
2023/04/06 07:03:28;;;;;;;7.78;4.70;;;;;;;;;;10313664;28;19906;-83
2023/04/06 07:08:29;;;;;;;;;;;;;;;;;;10317949;28;20051;-81
2023/04/06 07:13:30;;;;;;;8.57;5.95;;;;;;;;;;10311558;28;19906;-80
2023/04/06 07:18:31;;;;;;;;;;;;;;;;;;10306749;28;20069;-80
2023/04/06 07:23:32;;;;;;;9.40;6.00;;;;;;;;;;10306059;28;20008;-80
2023/04/06 07:28:33;;;;;;;;;;;;;;;;;;10311479;28;20062;-80
2023/04/06 07:33:34;;;;;;;12.05;9.32;;;;;;;;;;10311976;28;19906;-81
2023/04/06 07:38:35;;;;;;;15.55;10.63;;;;;;;;;;10310794;28;20038;-82
2023/04/06 07:43:36;;;;;;;;;;;;;;;;;;10318413;28;20030;-81
2023/04/06 07:48:37;;;;;;;11.05;8.80;;;;;;;;;;10313623;28;20288;-81
2023/04/06 07:53:38;;;;;;;;;;;;;;;;;;10309256;28;20060;-81
2023/04/06 07:58:39;;;;;;;7.63;5.78;;;;;;;;;;10323841;28;20423;-79
2023/04/06 08:03:40;;;;;;;7.07;5.28;;;;;;;;;;10325763;28;20508;-81
2023/04/06 08:08:41;;;;;;;;;;;;;;;;;;10307964;28;20514;-81
2023/04/06 08:13:42;;;;;;;14.65;9.52;;;;;;;;;;10306563;28;19910;-81
2023/04/06 08:18:43;;;;;;;;;;;;;;;;;;10306412;28;20146;-81
2023/04/06 08:23:45;;;;;;;12.65;8.90;;;;;;;;;;10307139;28;19906;-81
2023/04/06 08:28:47;;;;;;;7.60;4.75;;;;;;;;;;10311760;28;20075;-82
2023/04/06 08:33:47;;;;;;;;;;;;;;;;;;10306102;28;20027;-81
2023/04/06 08:38:49;;;;;;;11.45;6.80;;;;;;;;;;10305054;28;19906;-80
2023/04/06 08:43:54;;;;;;;12.98;10.65;;;;;;;;;;10299186;28;20081;-80
2023/04/06 08:48:56;;;;;;;12.45;6.85;;;;;;;;;;10300369;28;20031;-80
2023/04/06 08:53:57;;;;;;;10.80;6.22;;;;;;;;;;10303154;28;20065;-81
2023/04/06 08:58:59;;;;;;;17.60;11.75;;;;;;;;;;10299575;28;20124;-81
2023/04/06 09:04:01;;;;;;;9.80;6.20;;;;;;;;;;10304128;28;20030;-79
2023/04/06 09:09:02;;;;;;;8.85;6.80;;;;;;;;;;10301541;28;20062;-80
2023/04/06 09:14:02;;;;;;;;;;;;;;;;;;10307743;28;20029;-79
2023/04/06 09:19:06;;;;;;;9.20;6.05;;;;;;;;;;10311742;28;20001;-79
2023/04/06 09:24:08;;;;;;;15.20;11.90;;;;;;;;;;10297427;28;20146;-79
2023/04/06 09:29:10;;;;;;;11.98;7.72;;;;;;;;;;10298783;28;20031;-80
2023/04/06 09:34:11;;;;;;;;;;;;;;;;;;10298232;28;20058;-80
2023/04/06 09:39:13;;;;;;;8.65;7.20;;;;;;;;;;10298303;28;20422;-80
2023/04/06 09:44:14;;;;;;;16.48;11.30;;;;;;;;;;10297312;28;20062;-79
2023/04/06 09:49:16;;;;;;;15.85;11.95;;;;;;;;;;10297602;28;20373;-80
2023/04/06 09:54:19;;;;;;;17.05;13.30;;;;;;;;;;10299434;28;20524;-80
2023/04/06 09:59:32;;;;;;;10.70;8.63;;;;;;;;;;10297813;28;20520;-81
2023/04/06 10:04:36;;;;;;;14.48;10.30;;;;;;;;;;10297628;28;20462;-79
2023/04/06 10:09:37;;;;;;;14.32;12.38;;;;;;;;;;10299074;28;20153;-81
2023/04/06 10:14:40;;;;;;;12.23;8.20;;;;;;;;;;10300437;28;20315;-80
2023/04/06 10:19:55;;;;;;;13.77;10.13;;;;;;;;;;10303448;28;20497;-79
2023/04/06 10:24:56;;;;;;;15.32;11.00;;;;;;;;;;10318200;28;20477;-79
2023/04/06 10:30:05;;;;;;;16.65;13.15;;;;;;;;;;10302058;28;20030;-79
2023/04/06 10:35:07;;;;;;;18.02;13.40;;;;;;;;;;10306127;28;20110;-80
2023/04/06 10:40:19;;;;;;;17.48;13.93;;;;;;;;;;10305215;28;20101;-80
2023/04/06 10:45:31;;;;;;;13.57;10.48;;;;;;;;;;10303412;28;20477;-80
2023/04/06 10:50:33;;;;;;;17.75;13.32;;;;;;;;;;10303007;28;20034;-80
2023/04/06 10:55:35;;;;;;;17.55;12.98;;;;;;;;;;10301549;28;20094;-80
2023/04/06 11:00:36;;;;;;;17.13;13.27;;;;;;;;;;10301612;28;20125;-79
2023/04/06 11:05:37;;;;;;;19.52;13.73;;;;;;;;;;10303986;28;20042;-79
2023/04/06 11:10:38;;;;;;;;;;;;;;;;;;10302475;28;20037;-81
2023/04/06 11:15:39;;;;;;;20.33;14.98;;;;;;;;;;10302715;28;20353;-80
2023/04/06 11:20:40;;;;;;;;;;;;;;;;;;10302019;28;20030;-80
2023/04/06 11:25:50;;;;;;;19.15;15.07;;;;;;;;;;10300816;28;19910;-81
2023/04/06 11:30:51;;;;;;;14.43;12.50;;;;;;;;;;10301470;28;20058;-80
2023/04/06 11:35:52;;;;;;;14.10;10.57;;;;;;;;;;10312048;28;20046;-79
2023/04/06 11:40:54;;;;;;;16.42;12.35;;;;;;;;;;10327859;28;20015;-80
2023/04/06 11:46:01;;;;;;;15.35;12.10;;;;;;;;;;10318659;28;20049;-82
2023/04/06 11:51:04;;;;;;;19.45;14.35;;;;;;;;;;10321584;28;20082;-81
2023/04/06 11:56:05;;;;;;;12.52;9.75;;;;;;;;;;10323796;28;20091;-80
2023/04/06 12:01:07;;;;;;;18.23;14.10;;;;;;;;;;10303813;28;20093;-80
2023/04/06 12:06:08;;;;;;;19.13;13.68;;;;;;;;;;10298912;28;20580;-79
2023/04/06 12:11:09;;;;;;;;;;;;;;;;;;10308403;28;20065;-81
2023/04/06 12:16:10;;;;;;;19.30;9.93;;;;;;;;;;10319197;28;19969;-80
2023/04/06 12:21:11;;;;;;;14.23;10.60;;;;;;;;;;10320590;28;20077;-80
2023/04/06 12:26:12;;;;;;;13.45;9.27;;;;;;;;;;10323078;28;20474;-79
2023/04/06 12:31:20;;;;;;;12.68;9.23;;;;;;;;;;10322735;28;20058;-82
2023/04/06 12:36:21;;;;;;;14.68;10.98;;;;;;;;;;10319427;28;20406;-81
2023/04/06 12:41:23;;;;;;;15.15;11.38;;;;;;;;;;10323796;28;20061;-79
2023/04/06 12:46:24;;;;;;;18.13;12.05;;;;;;;;;;10325988;28;20037;-79
2023/04/06 12:51:28;;;;;;;10.13;7.40;;;;;;;;;;10315796;28;20031;-80
2023/04/06 12:56:29;;;;;;;15.82;11.40;;;;;;;;;;10314746;28;20026;-80
2023/04/06 13:01:30;;;;;;;12.25;9.13;;;;;;;;;;10317492;28;20039;-81
2023/04/06 13:06:31;;;;;;;9.77;7.25;;;;;;;;;;10314007;28;20493;-81
2023/04/06 13:11:32;;;;;;;16.58;12.23;;;;;;;;;;10319861;28;20027;-81
2023/04/06 13:16:33;;;;;;;11.20;7.65;;;;;;;;;;10327319;28;20027;-81
2023/04/06 13:21:36;;;;;;;12.68;8.40;;;;;;;;;;10319540;28;20034;-80
2023/04/06 13:26:37;;;;;;;14.98;10.52;;;;;;;;;;10297280;28;20030;-80
2023/04/06 13:31:38;;;;;;;10.40;7.78;;;;;;;;;;10306138;28;20058;-79
2023/04/06 13:36:41;;;;;;;15.82;11.73;;;;;;;;;;10308030;28;20023;-80
2023/04/06 13:41:42;;;;;;;14.30;11.10;;;;;;;;;;10315128;28;20071;-78
2023/04/06 13:46:43;;;;;;;;;;;;;;;;;;10306047;28;20087;-80
2023/04/06 13:51:44;;;;;;;14.45;11.00;;;;;;;;;;10298973;28;19910;-80
2023/04/06 13:56:45;;;;;;;11.88;8.80;;;;;;;;;;10303070;28;20030;-81
2023/04/06 14:01:46;;;;;;;14.43;12.23;;;;;;;;;;10311632;28;20510;-81
2023/04/06 14:06:47;;;;;;;7.20;5.85;;;;;;;;;;10310381;28;20050;-81
2023/04/06 14:11:49;;;;;;;15.30;10.57;;;;;;;;;;10312181;28;20027;-82
2023/04/06 14:16:50;;;;;;;12.90;10.30;;;;;;;;;;10317554;28;20023;-81
2023/04/06 14:21:53;;;;;;;10.65;7.65;;;;;;;;;;10317384;28;20038;-83
2023/04/06 14:26:54;;;;;;;9.60;7.20;;;;;;;;;;10297601;28;20050;-81
2023/04/06 14:31:59;;;;;;;;;;;;;;;;;;10315069;28;20073;-82
2023/04/06 14:37:00;;;;;;;12.20;8.50;;;;;;;;;;10314244;28;19906;-80
2023/04/06 14:42:01;;;;;;;8.80;6.40;;;;;;;;;;10305334;28;20066;-79
2023/04/06 14:47:03;;;;;;;9.15;7.55;;;;;;;;;;10301630;28;20051;-79
2023/04/06 14:52:05;;;;;;;9.57;6.43;;;;;;;;;;10305582;28;20131;-78
2023/04/06 14:57:06;;;;;;;11.88;8.30;;;;;;;;;;10308759;28;20085;-80
2023/04/06 15:02:07;;;;;;;12.73;9.43;;;;;;;;;;10301613;28;20499;-78
2023/04/06 15:07:08;;;;;;;9.40;6.57;;;;;;;;;;10300919;28;20034;-79
2023/04/06 15:12:09;;;;;;;10.73;8.60;;;;;;;;;;10300487;28;20027;-79
2023/04/06 15:17:10;;;;;;;8.63;6.07;;;;;;;;;;10303177;28;20030;-79
2023/04/06 15:22:11;;;;;;;8.30;7.13;;;;;;;;;;10314505;28;20128;-80
2023/04/06 15:27:12;;;;;;;9.07;5.60;;;;;;;;;;10317510;28;20031;-79
2023/04/06 15:32:13;;;;;;;7.10;4.93;;;;;;;;;;10319253;28;20045;-80
2023/04/06 15:37:14;;;;;;;8.90;5.57;;;;;;;;;;10322111;28;20031;-80
2023/04/06 15:42:15;;;;;;;8.93;7.40;;;;;;;;;;10322278;28;20023;-81
2023/04/06 15:47:16;;;;;;;;;;;;;;;;;;10323684;28;20026;-80
2023/04/06 15:52:17;;;;;;;7.80;6.10;;;;;;;;;;10324993;28;19982;-81
2023/04/06 15:57:18;;;;;;;;;;;;;;;;;;10335882;28;20038;-81
2023/04/06 16:02:21;;;;;;;8.32;6.47;;;;;;;;;;10324111;28;19938;-80
2023/04/06 16:07:22;;;;;;;6.55;4.95;;;;;;;;;;10325594;28;20027;-80
2023/04/06 16:12:24;;;;;;;8.20;5.57;;;;;;;;;;10334275;28;20027;-79
2023/04/06 16:17:25;;;;;;;11.32;8.45;;;;;;;;;;10336221;28;20049;-79
2023/04/06 16:22:27;;;;;;;;;;;;;;;;;;10333315;28;20015;-80
2023/04/06 16:27:28;;;;;;;4.72;3.05;;;;;;;;;;10303234;28;19945;-79
2023/04/06 16:32:29;;;;;;;;;;;;;;;;;;10301643;28;20035;-79
2023/04/06 16:37:30;;;;;;;;;;;;;;;;;;10302088;28;20273;-80
2023/04/06 16:42:31;;;;;;;5.97;4.57;;;;;;;;;;10302229;28;19910;-79
2023/04/06 16:47:32;;;;;;;;;;;;;;;;;;10303417;28;20034;-79
2023/04/06 16:52:34;;;;;;;6.70;5.57;;;;;;;;;;10301619;28;19910;-79
2023/04/06 16:57:35;;;;;;;6.97;5.00;;;;;;;;;;10301579;28;20034;-79
2023/04/06 17:02:36;;;;;;;;;;;;;;;;;;10302397;28;20136;-79
2023/04/06 17:07:37;;;;;;;5.40;4.45;;;;;;;;;;10299896;28;19910;-79
2023/04/06 17:12:38;;;;;;;6.47;4.57;;;;;;;;;;10299927;28;20058;-79
2023/04/06 17:17:39;;;;;;;2.45;1.88;;;;;;;;;;10300459;28;20027;-79
2023/04/06 17:22:41;;;;;;;5.15;2.58;;;;;;;;;;10299123;28;20468;-79
2023/04/06 17:27:42;;;;;;;4.82;3.15;;;;;;;;;;10300493;28;20501;-79
2023/04/06 17:32:44;;;;;;;6.15;3.65;;;;;;;;;;10298530;28;20066;-79
2023/04/06 17:37:45;;;;;;;6.90;4.53;;;;;;;;;;10298930;28;20034;-80
2023/04/06 17:42:46;;;;;;;3.10;2.20;;;;;;;;;;10300523;28;20030;-79
2023/04/06 17:47:47;;;;;;;;;;;;;;;;;;10300845;28;20034;-79
2023/04/06 17:52:48;;;;;;;5.60;4.03;;;;;;;;;;10298414;28;19910;-79
2023/04/06 17:57:49;;;;;;;4.82;4.32;;;;;;;;;;10332596;23;20030;-83
2023/04/06 18:02:52;;;;;;;8.27;5.13;;;;;;;;;;10382877;28;20057;-79
2023/04/06 18:07:54;;;;;;;5.30;3.63;;;;;;;;;;10369765;28;20042;-82
2023/04/06 18:12:55;;;;;;;6.00;4.38;;;;;;;;;;10352455;28;20037;-81
2023/04/06 18:17:56;;;;;;;5.18;3.90;;;;;;;;;;10352021;28;20030;-80
2023/04/06 18:22:57;;;;;;;4.40;3.50;;;;;;;;;;10354070;28;20498;-81
2023/04/06 18:27:58;;;;;;;3.15;2.40;;;;;;;;;;10353042;28;20026;-79
2023/04/06 18:32:59;;;;;;;5.18;3.75;;;;;;;;;;10353988;28;20046;-79
2023/04/06 18:38:01;;;;;;;3.90;2.70;;;;;;;;;;10355365;28;20026;-80
2023/04/06 18:43:04;;;;;;;5.15;3.80;;;;;;;;;;10355374;28;20026;-81
2023/04/06 18:48:12;;;;;;;5.18;3.60;;;;;;;;;;10354995;28;20057;-82
2023/04/06 18:53:13;;;;;;;5.07;3.95;;;;;;;;;;10359039;28;20029;-80
2023/04/06 18:58:14;;;;;;;6.18;4.82;;;;;;;;;;10370646;28;20037;-82
2023/04/06 19:03:16;;;;;;;6.35;3.97;;;;;;;;;;10380912;28;20034;-79
2023/04/06 19:08:17;;;;;;;5.93;3.97;;;;;;;;;;10369065;28;20093;-80
2023/04/06 19:13:26;;;;;;;4.20;3.17;;;;;;;;;;10367191;28;20060;-80
